Terminal Aerodrome Forecast
Issued by NWS Shreveport, LA

Home | Current Version | Previous Version | Text Only | Print | Product List | Glossary On
Versions: 1 2 3 4 5 6 7 8 9 10 11 12 13 14 15 16 17 18 19 20 21 22 23 24 25 26 27 28 29 30
000
FTUS44 KSHV 291305 AAA
TAFMLU
TAF AMD
KMLU 291305Z 2913/3012 16010KT P6SM OVC010
     FM291500 16010KT P6SM OVC015
     FM292000 17012G20KT P6SM VCTS BKN035CB
     FM300100 16008KT P6SM VCTS BKN035CB
     FM300700 16011KT P6SM -TSRA OVC015CB=

USA.gov is the U.S. government's official web portal to all federal, state and local government web resources and services.